createdAt,value
2022-07-27T00:00:18.296Z,72.12
2022-07-27T00:00:38.357Z,72.47
2022-07-27T00:00:58.416Z,72.38
2022-07-27T00:01:18.447Z,72.34
2022-07-27T00:01:38.439Z,72.37
2022-07-27T00:01:58.511Z,72.47
2022-07-27T00:02:18.593Z,72.51
2022-07-27T00:02:38.640Z,72.74
2022-07-27T00:02:58.704Z,72.1
2022-07-27T00:03:18.757Z,72.16
2022-07-27T00:03:38.832Z,72.51
2022-07-27T00:03:58.933Z,72.77
2022-07-27T00:04:19.062Z,72.55
2022-07-27T00:04:39.074Z,72.48
2022-07-27T00:04:59.065Z,72.7
2022-07-27T00:05:19.191Z,72.65
2022-07-27T00:05:39.190Z,72.86
2022-07-27T00:05:59.246Z,72.17
2022-07-27T00:06:19.301Z,72.32
2022-07-27T00:06:39.356Z,72.34
2022-07-27T00:06:59.432Z,72.42
2022-07-27T00:07:19.483Z,72.39
2022-07-27T00:07:39.543Z,72.4
2022-07-27T00:07:59.600Z,72.94
2022-07-27T00:08:19.663Z,72.98
2022-07-27T00:08:39.722Z,72.88
2022-07-27T00:08:59.778Z,72.65
2022-07-27T00:09:19.842Z,72.76
2022-07-27T00:09:39.893Z,72.93
2022-07-27T00:09:59.951Z,73.2
2022-07-27T00:10:20.140Z,73.15
2022-07-27T00:10:40.075Z,72.97
2022-07-27T00:11:00.135Z,73.12
2022-07-27T00:11:20.191Z,73.28
2022-07-27T00:11:40.231Z,73.13
2022-07-27T00:12:00.300Z,72.88
2022-07-27T00:12:20.383Z,73.25
2022-07-27T00:12:40.432Z,73.2
2022-07-27T00:13:00.503Z,73.16
2022-07-27T00:13:20.556Z,73.79
2022-07-27T00:13:40.616Z,73.45
2022-07-27T00:14:00.693Z,73.21
2022-07-27T00:14:20.747Z,73.41
2022-07-27T00:14:40.785Z,73.24
2022-07-27T00:15:00.856Z,73.16
2022-07-27T00:15:20.999Z,73
2022-07-27T00:15:40.976Z,73.09
2022-07-27T00:16:01.126Z,73.2
2022-07-27T00:16:21.183Z,73.09
2022-07-27T00:16:41.197Z,73.11
2022-07-27T00:17:01.197Z,73.17
2022-07-27T00:17:21.258Z,73.08
2022-07-27T00:17:41.340Z,72.99
2022-07-27T00:18:01.390Z,73.1
2022-07-27T00:18:21.443Z,73.1
2022-07-27T00:18:41.514Z,73.14
2022-07-27T00:19:01.569Z,73.17
2022-07-27T00:19:21.638Z,73.1
2022-07-27T00:19:41.687Z,73.25
2022-07-27T00:20:01.743Z,73.28
2022-07-27T00:20:26.945Z,73.32
2022-07-27T00:20:41.855Z,73.32
2022-07-27T00:21:01.914Z,73.33
2022-07-27T00:21:21.965Z,73.71
2022-07-27T00:21:46.206Z,73.66
2022-07-27T00:22:02.129Z,73.55
2022-07-27T00:22:22.197Z,73.8
2022-07-27T00:22:42.247Z,73.9
2022-07-27T00:23:02.313Z,73.78
2022-07-27T00:23:22.393Z,73.65
2022-07-27T00:23:42.483Z,74
2022-07-27T00:24:02.520Z,74.07
2022-07-27T00:24:22.556Z,74.23
2022-07-27T00:24:42.640Z,74.47
2022-07-27T00:25:02.708Z,74.28
2022-07-27T00:25:23.044Z,73.99
2022-07-27T00:25:42.825Z,74.44
2022-07-27T00:26:02.879Z,74.37
2022-07-27T00:26:22.944Z,74.26
2022-07-27T00:26:43.005Z,74.2
2022-07-27T00:27:03.060Z,74.38
2022-07-27T00:27:23.095Z,74.65
2022-07-27T00:27:43.170Z,74.42
2022-07-27T00:28:03.245Z,74.64
2022-07-27T00:28:23.301Z,74.54
2022-07-27T00:28:43.362Z,74.78
2022-07-27T00:29:03.420Z,74.56
2022-07-27T00:29:23.461Z,74.74
2022-07-27T00:29:43.510Z,74.63
2022-07-27T00:30:03.586Z,74.59
2022-07-27T00:30:23.701Z,74.22
2022-07-27T00:30:43.713Z,74.4
2022-07-27T00:31:03.862Z,74.35
2022-07-27T00:31:23.962Z,74.48
2022-07-27T00:31:43.990Z,74.43
2022-07-27T00:32:03.946Z,74.33
2022-07-27T00:32:24.029Z,74.25
2022-07-27T00:32:44.080Z,74.23
2022-07-27T00:33:04.130Z,74.33
2022-07-27T00:33:24.204Z,74.26
2022-07-27T00:33:44.265Z,74.39
2022-07-27T00:34:04.319Z,74.53
2022-07-27T00:34:24.350Z,74.61
2022-07-27T00:34:44.401Z,74.72
2022-07-27T00:35:04.497Z,74.94
2022-07-27T00:35:24.644Z,74.88
2022-07-27T00:35:44.622Z,75.06
2022-07-27T00:36:04.675Z,74.92
2022-07-27T00:36:24.749Z,74.84
2022-07-27T00:36:44.794Z,74.98
2022-07-27T00:37:04.856Z,75.15
2022-07-27T00:37:24.923Z,75.2
2022-07-27T00:37:44.978Z,75.22
2022-07-27T00:38:05.026Z,75.12
2022-07-27T00:38:25.101Z,75.07
2022-07-27T00:38:45.145Z,75.08
2022-07-27T00:39:05.206Z,75.22
2022-07-27T00:39:25.263Z,75.51
2022-07-27T00:39:45.324Z,75.52
2022-07-27T00:40:05.391Z,75.74
2022-07-27T00:40:25.533Z,75.75
2022-07-27T00:40:45.506Z,76.05
2022-07-27T00:41:05.567Z,75.75
2022-07-27T00:41:25.645Z,75.88
2022-07-27T00:41:45.680Z,76.1
2022-07-27T00:42:05.746Z,76.08
2022-07-27T00:42:25.815Z,76.2
2022-07-27T00:42:45.889Z,76.08
2022-07-27T00:43:05.936Z,76.03
2022-07-27T00:43:25.992Z,76.26
2022-07-27T00:43:46.052Z,76.07
2022-07-27T00:44:06.114Z,76.08
2022-07-27T00:44:26.182Z,76.14
2022-07-27T00:44:46.245Z,76.29
2022-07-27T00:45:06.318Z,76.52
2022-07-27T00:45:26.474Z,76.37
2022-07-27T00:45:46.516Z,76.48
2022-07-27T00:46:06.559Z,76.16
2022-07-27T00:46:26.712Z,76.12
2022-07-27T00:46:46.718Z,76.18
2022-07-27T00:47:06.807Z,76.11
2022-07-27T00:47:26.815Z,76.28
2022-07-27T00:47:49.526Z,76.14
2022-07-27T00:48:06.966Z,76.42
2022-07-27T00:48:27.271Z,76.19
2022-07-27T00:48:47.199Z,76.31
2022-07-27T00:49:07.278Z,76.08
2022-07-27T00:49:27.339Z,76.01
2022-07-27T00:49:47.323Z,75.98
2022-07-27T00:50:07.415Z,75.91
2022-07-27T00:50:27.537Z,75.89
2022-07-27T00:50:47.562Z,76.46
2022-07-27T00:51:07.619Z,76.55
2022-07-27T00:51:27.691Z,76.13
2022-07-27T00:51:47.746Z,75.81
2022-07-27T00:52:07.815Z,75.6
2022-07-27T00:52:27.871Z,75.21
2022-07-27T00:52:47.955Z,75.28
2022-07-27T00:53:08.035Z,75.74
2022-07-27T00:53:28.101Z,76.22
2022-07-27T00:53:48.186Z,76.19
2022-07-27T00:54:08.267Z,76.1
2022-07-27T00:54:28.314Z,76.03
2022-07-27T00:54:48.376Z,75.94
2022-07-27T00:55:08.456Z,76.18
2022-07-27T00:55:28.593Z,75.94
2022-07-27T00:55:48.582Z,75.17
2022-07-27T00:56:08.648Z,75.05
2022-07-27T00:56:28.733Z,74.74
2022-07-27T00:56:48.789Z,74.62
2022-07-27T00:57:08.866Z,74.71
2022-07-27T00:57:28.940Z,74.81
2022-07-27T00:57:58.901Z,74.82
2022-07-27T00:58:09.048Z,74.35
2022-07-27T00:58:29.137Z,73.99
2022-07-27T00:58:49.221Z,73.7
2022-07-27T00:59:11.495Z,73.88
2022-07-27T00:59:29.379Z,73.98
2022-07-27T00:59:49.454Z,74.07
2022-07-27T01:00:09.540Z,74.07
2022-07-27T01:00:29.651Z,73.64
2022-07-27T01:00:49.662Z,73.67
2022-07-27T01:01:09.742Z,73.87
2022-07-27T01:01:29.854Z,73.5
2022-07-27T01:01:50.004Z,73.55
2022-07-27T01:02:11.953Z,72.73
2022-07-27T01:02:30.167Z,72.96
2022-07-27T01:02:50.279Z,73.24
2022-07-27T01:03:10.335Z,73.24
2022-07-27T01:03:30.223Z,72.99
2022-07-27T01:03:50.309Z,72.68
2022-07-27T01:04:10.371Z,72.95
2022-07-27T01:04:30.473Z,73.32
2022-07-27T01:04:53.526Z,73.54
2022-07-27T01:05:10.595Z,73.95
2022-07-27T01:05:36.590Z,74.07
2022-07-27T01:05:50.770Z,74.13
2022-07-27T01:06:10.874Z,74.23
2022-07-27T01:06:30.934Z,74.55
2022-07-27T01:06:51.002Z,74.41
2022-07-27T01:07:11.070Z,74.39
2022-07-27T01:07:31.144Z,73.48
2022-07-27T01:07:51.232Z,71.72
2022-07-27T01:08:11.313Z,71.97
2022-07-27T01:08:31.384Z,71.98
2022-07-27T01:08:51.464Z,72.15
2022-07-27T01:09:11.778Z,72.24
2022-07-27T01:09:31.634Z,72.09
2022-07-27T01:09:51.731Z,72.34
2022-07-27T01:10:11.781Z,72.13
2022-07-27T01:10:31.943Z,72.36
2022-07-27T01:10:51.936Z,71.48
2022-07-27T01:11:12.044Z,71.06
2022-07-27T01:11:32.124Z,71.29
2022-07-27T01:11:52.205Z,71.68
2022-07-27T01:12:12.277Z,71.77
2022-07-27T01:12:32.346Z,71.76
2022-07-27T01:12:52.419Z,71.96
2022-07-27T01:13:13.571Z,72.05
2022-07-27T01:13:32.608Z,71.9
2022-07-27T01:13:52.692Z,71.42
2022-07-27T01:14:12.763Z,71.48
2022-07-27T01:14:32.934Z,72.17
2022-07-27T01:14:52.958Z,72.19
2022-07-27T01:15:13.020Z,71.82
2022-07-27T01:15:35.311Z,71.09
2022-07-27T01:15:53.250Z,70.68
2022-07-27T01:16:13.285Z,70.92
2022-07-27T01:16:33.362Z,71.01
2022-07-27T01:16:53.347Z,70.99
2022-07-27T01:17:13.432Z,71.24
2022-07-27T01:17:33.508Z,70.93
2022-07-27T01:17:53.591Z,70.72
2022-07-27T01:18:13.726Z,70.8
2022-07-27T01:18:33.773Z,71.01
2022-07-27T01:18:53.857Z,71.23
2022-07-27T01:19:14.422Z,70.87
2022-07-27T01:19:34.010Z,70.97
2022-07-27T01:19:54.111Z,71
2022-07-27T01:20:14.154Z,70.73
2022-07-27T01:20:34.299Z,70.75
2022-07-27T01:20:54.315Z,71.09
2022-07-27T01:21:14.393Z,71.3
2022-07-27T01:21:34.510Z,71.4
2022-07-27T01:21:54.568Z,71.11
2022-07-27T01:22:14.616Z,71.37
2022-07-27T01:22:34.695Z,71.07
2022-07-27T01:22:54.772Z,71
2022-07-27T01:23:14.862Z,70.88
2022-07-27T01:23:34.922Z,70.7
2022-07-27T01:23:54.980Z,70.94
2022-07-27T01:24:15.047Z,71.31
2022-07-27T01:24:35.131Z,71.9
2022-07-27T01:24:55.210Z,71.35
2022-07-27T01:25:15.257Z,70.5
2022-07-27T01:25:35.398Z,70.6
2022-07-27T01:25:55.415Z,71.17
2022-07-27T01:26:15.480Z,71.02
2022-07-27T01:26:35.568Z,70.81
2022-07-27T01:26:55.661Z,70.96
2022-07-27T01:27:15.712Z,70.94
2022-07-27T01:27:35.802Z,71.07
2022-07-27T01:27:55.865Z,71.41
2022-07-27T01:28:15.927Z,71.51
2022-07-27T01:28:35.982Z,71.23
2022-07-27T01:28:56.049Z,71.3
2022-07-27T01:29:16.159Z,71.38
2022-07-27T01:29:36.206Z,71.35
2022-07-27T01:29:56.276Z,71.26
2022-07-27T01:30:16.342Z,71.2
2022-07-27T01:30:36.504Z,71.18
2022-07-27T01:30:56.548Z,70.86
2022-07-27T01:31:16.694Z,70.79
2022-07-27T01:31:36.661Z,70.94
2022-07-27T01:31:56.675Z,71.01
2022-07-27T01:32:16.736Z,71.03
2022-07-27T01:32:36.801Z,71.16
2022-07-27T01:32:56.849Z,71.14
2022-07-27T01:33:16.917Z,71.33
2022-07-27T01:33:36.979Z,71.38
2022-07-27T01:33:57.030Z,71.57
2022-07-27T01:34:17.127Z,71.65
2022-07-27T01:34:37.158Z,71.87
2022-07-27T01:34:57.209Z,72.14
2022-07-27T01:35:17.269Z,71.84
2022-07-27T01:35:37.397Z,71.66
2022-07-27T01:35:57.466Z,71.49
2022-07-27T01:36:17.437Z,71.8
2022-07-27T01:36:37.500Z,71.89
2022-07-27T01:36:57.579Z,71.92
2022-07-27T01:37:17.628Z,72.53
2022-07-27T01:37:37.690Z,72.63
2022-07-27T01:37:57.739Z,72.46
2022-07-27T01:38:17.802Z,72.43
2022-07-27T01:38:37.869Z,71.97
2022-07-27T01:38:57.927Z,71.8
2022-07-27T01:39:17.984Z,71.89
2022-07-27T01:39:38.047Z,71.91
2022-07-27T01:39:58.102Z,71.97
2022-07-27T01:40:18.163Z,71.87
2022-07-27T01:40:38.287Z,71.97
2022-07-27T01:40:58.281Z,72.26
2022-07-27T01:41:18.332Z,72.45
2022-07-27T01:41:38.398Z,72.62
2022-07-27T01:41:58.455Z,72.95
2022-07-27T01:42:18.514Z,72.45
2022-07-27T01:42:38.577Z,71.99
2022-07-27T01:42:58.631Z,71.85
2022-07-27T01:43:18.693Z,71.8
2022-07-27T01:43:38.745Z,71.8
2022-07-27T01:43:58.798Z,71.65
2022-07-27T01:44:18.850Z,71.8
2022-07-27T01:44:38.911Z,71.71
2022-07-27T01:44:58.986Z,71.56
2022-07-27T01:45:19.125Z,71.26
2022-07-27T01:45:39.178Z,71.67
2022-07-27T01:45:59.190Z,72.43
2022-07-27T01:46:19.304Z,71.85
2022-07-27T01:46:39.380Z,71.83
2022-07-27T01:46:59.339Z,71.68
2022-07-27T01:47:19.404Z,71.4
2022-07-27T01:47:39.469Z,70.79
2022-07-27T01:47:59.534Z,70.93
2022-07-27T01:48:19.591Z,71.05
2022-07-27T01:48:39.681Z,71.32
2022-07-27T01:48:59.783Z,71.54
2022-07-27T01:49:19.873Z,71.2
2022-07-27T01:49:39.840Z,71.06
2022-07-27T01:49:59.878Z,71.06
2022-07-27T01:50:19.943Z,71.32
2022-07-27T01:50:40.070Z,70.79
2022-07-27T01:51:00.058Z,70.96
2022-07-27T01:51:20.108Z,70.58
2022-07-27T01:51:40.161Z,70.83
2022-07-27T01:52:00.225Z,70.78
2022-07-27T01:52:20.293Z,70.67
2022-07-27T01:52:40.356Z,70.89
2022-07-27T01:53:00.420Z,70.66
2022-07-27T01:53:20.478Z,71.1
2022-07-27T01:53:40.532Z,71.31
2022-07-27T01:54:00.590Z,71.05
2022-07-27T01:54:20.658Z,71.39
2022-07-27T01:54:40.712Z,71
2022-07-27T01:55:00.778Z,71.58
2022-07-27T01:55:20.829Z,71.84
2022-07-27T01:55:40.961Z,71.45
2022-07-27T01:56:00.951Z,71.37
2022-07-27T01:56:21.019Z,71.28
2022-07-27T01:56:41.097Z,71.33
2022-07-27T01:57:01.152Z,71.62
2022-07-27T01:57:21.201Z,71.41
2022-07-27T01:57:41.281Z,71.49
2022-07-27T01:58:01.319Z,71.43
2022-07-27T01:58:21.368Z,71.34
2022-07-27T01:58:41.433Z,71.12
2022-07-27T01:59:01.484Z,71.29
2022-07-27T01:59:21.539Z,71.52
2022-07-27T01:59:41.625Z,71.11
2022-07-27T02:00:01.698Z,71.15
2022-07-27T02:00:21.790Z,71.36
2022-07-27T02:00:41.911Z,71.23
2022-07-27T02:01:01.914Z,71.21
2022-07-27T02:01:22.149Z,71.32
2022-07-27T02:01:42.115Z,71.63
2022-07-27T02:02:02.208Z,71.55
2022-07-27T02:02:22.223Z,71.36
2022-07-27T02:02:42.283Z,71.18
2022-07-27T02:03:02.349Z,71.54
2022-07-27T02:03:22.395Z,71.24
2022-07-27T02:03:42.453Z,71.66
2022-07-27T02:04:02.505Z,71.29
2022-07-27T02:04:22.563Z,71.65
2022-07-27T02:04:42.639Z,71.53
2022-07-27T02:05:02.794Z,71.48
2022-07-27T02:05:22.788Z,71.57
2022-07-27T02:05:42.973Z,71.45
2022-07-27T02:06:02.834Z,71.36
2022-07-27T02:06:22.923Z,71.17
2022-07-27T02:06:42.996Z,71.4
2022-07-27T02:07:03.058Z,71.74
2022-07-27T02:07:23.132Z,71.72
2022-07-27T02:07:43.184Z,71.53
2022-07-27T02:08:03.243Z,71.85
2022-07-27T02:08:23.288Z,71.7
2022-07-27T02:08:43.363Z,72.05
2022-07-27T02:09:03.419Z,72.24
2022-07-27T02:09:23.476Z,71.58
2022-07-27T02:09:43.534Z,71.6
2022-07-27T02:10:03.590Z,71.37
2022-07-27T02:10:23.647Z,71.53
2022-07-27T02:10:43.785Z,71.82
2022-07-27T02:11:03.774Z,71.94
2022-07-27T02:11:23.831Z,71.99
2022-07-27T02:11:43.878Z,71.81
2022-07-27T02:12:03.947Z,71.58
2022-07-27T02:12:24.003Z,71.68
2022-07-27T02:12:44.065Z,71.78
2022-07-27T02:13:22.269Z,71.77
2022-07-27T02:13:24.202Z,71.75
2022-07-27T02:13:44.265Z,71.77
2022-07-27T02:14:04.311Z,72.05
2022-07-27T02:14:24.386Z,71.96
2022-07-27T02:14:44.457Z,72.32
2022-07-27T02:15:05.919Z,72.26
2022-07-27T02:15:25.092Z,72.22
2022-07-27T02:15:44.851Z,72.2
2022-07-27T02:16:04.754Z,72.17
2022-07-27T02:16:24.787Z,72.26
2022-07-27T02:16:44.887Z,72.36
2022-07-27T02:17:04.873Z,72.22
2022-07-27T02:17:24.911Z,72.12
2022-07-27T02:17:45.357Z,72.18
2022-07-27T02:18:05.031Z,72.06
2022-07-27T02:18:36.212Z,72.06
2022-07-27T02:18:45.147Z,72.13
2022-07-27T02:19:05.400Z,72.15
2022-07-27T02:19:25.271Z,72.07
2022-07-27T02:19:45.325Z,72.35
2022-07-27T02:20:05.389Z,72.31
2022-07-27T02:20:25.445Z,72.53
2022-07-27T02:20:45.594Z,72.46
2022-07-27T02:21:05.570Z,72.63
2022-07-27T02:21:25.628Z,72.88
2022-07-27T02:21:45.677Z,72.65
2022-07-27T02:22:05.766Z,72.69
2022-07-27T02:22:25.794Z,72.67
2022-07-27T02:22:45.861Z,72.89
2022-07-27T02:23:05.910Z,73.16
2022-07-27T02:23:25.988Z,73.04
2022-07-27T02:23:46.059Z,72.84
2022-07-27T02:24:06.120Z,72.64
2022-07-27T02:24:26.163Z,72.7
2022-07-27T02:24:46.248Z,72.73
2022-07-27T02:25:06.301Z,72.76
2022-07-27T02:25:26.365Z,72.78
2022-07-27T02:25:46.491Z,72.87
2022-07-27T02:26:06.473Z,72.96
2022-07-27T02:26:26.539Z,73.13
2022-07-27T02:26:46.606Z,72.77
2022-07-27T02:27:06.654Z,72.5
2022-07-27T02:27:26.713Z,72.51
2022-07-27T02:27:46.767Z,72.66
2022-07-27T02:28:06.837Z,72.83
2022-07-27T02:28:26.903Z,72.83
2022-07-27T02:28:46.976Z,72.77
2022-07-27T02:29:07.030Z,72.87
2022-07-27T02:29:27.077Z,72.9
2022-07-27T02:29:47.144Z,73.14
2022-07-27T02:30:07.202Z,73.08
2022-07-27T02:30:27.264Z,73.14
2022-07-27T02:30:47.398Z,73.35
2022-07-27T02:31:07.384Z,73.96
2022-07-27T02:31:29.941Z,73.6
2022-07-27T02:31:47.503Z,73.14
2022-07-27T02:32:07.558Z,73.1
2022-07-27T02:32:27.633Z,73.45
2022-07-27T02:32:47.719Z,73.33
2022-07-27T02:33:07.799Z,73.41
2022-07-27T02:33:27.784Z,73.29
2022-07-27T02:33:47.851Z,73.1
2022-07-27T02:34:07.906Z,73.36
2022-07-27T02:34:27.957Z,73.2
2022-07-27T02:34:48.027Z,73.06
2022-07-27T02:35:18.961Z,73.43
2022-07-27T02:35:28.133Z,73.14
2022-07-27T02:35:48.289Z,73.19
2022-07-27T02:36:08.273Z,73.43
2022-07-27T02:36:28.342Z,73.49
2022-07-27T02:36:48.400Z,73.43
2022-07-27T02:37:08.457Z,73.45
2022-07-27T02:37:28.521Z,73.52
2022-07-27T02:37:48.889Z,73.48
2022-07-27T02:38:08.609Z,73.16
2022-07-27T02:38:28.696Z,73.01
2022-07-27T02:38:48.759Z,72.73
2022-07-27T02:39:09.145Z,72.68
2022-07-27T02:39:28.867Z,73.1
2022-07-27T02:39:48.921Z,72.93
2022-07-27T02:40:08.956Z,72.97
2022-07-27T02:40:29.004Z,73.48
2022-07-27T02:40:49.178Z,74.06
2022-07-27T02:41:09.162Z,74.03
2022-07-27T02:41:29.220Z,73.23
2022-07-27T02:41:49.293Z,73.52
2022-07-27T02:42:09.321Z,73.94
2022-07-27T02:42:29.394Z,73.49
2022-07-27T02:42:49.448Z,73.28
2022-07-27T02:43:09.526Z,73.6
2022-07-27T02:43:29.579Z,73.54
2022-07-27T02:43:49.636Z,73.54
2022-07-27T02:44:09.703Z,73.86
2022-07-27T02:44:29.751Z,73.5
2022-07-27T02:44:49.817Z,73.42
2022-07-27T02:45:09.871Z,73.5
2022-07-27T02:45:29.946Z,73.21
2022-07-27T02:45:50.174Z,72.72
2022-07-27T02:46:10.109Z,72.98
2022-07-27T02:46:30.179Z,72.75
2022-07-27T02:46:50.198Z,72.84
2022-07-27T02:47:10.244Z,73.04
2022-07-27T02:47:30.299Z,73
2022-07-27T02:47:50.329Z,73.03
2022-07-27T02:48:10.400Z,72.97
2022-07-27T02:48:30.537Z,73.25
2022-07-27T02:48:50.630Z,73.31
2022-07-27T02:49:10.949Z,73.49
2022-07-27T02:49:30.652Z,73.3
2022-07-27T02:49:50.719Z,73.78
2022-07-27T02:50:10.784Z,73.92
2022-07-27T02:50:30.865Z,73.59
2022-07-27T02:50:50.989Z,73.18
2022-07-27T02:51:10.969Z,73
2022-07-27T02:51:31.015Z,73.06
2022-07-27T02:51:51.082Z,73.09
2022-07-27T02:52:11.140Z,73.14
2022-07-27T02:52:31.203Z,73.2
2022-07-27T02:52:51.256Z,73.51
2022-07-27T02:53:11.311Z,73.66
2022-07-27T02:53:31.366Z,73.48
2022-07-27T02:53:51.452Z,73.25
2022-07-27T02:54:11.528Z,73.57
2022-07-27T02:54:31.568Z,73.57
2022-07-27T02:54:51.632Z,73.8
2022-07-27T02:55:11.696Z,73.7
2022-07-27T02:55:31.753Z,73.64
2022-07-27T02:55:51.875Z,73.58
2022-07-27T02:56:11.867Z,73.64
2022-07-27T02:56:31.926Z,73.48
2022-07-27T02:56:51.996Z,73.26
2022-07-27T02:57:12.033Z,73.08
2022-07-27T02:57:32.108Z,73.45
2022-07-27T02:57:52.165Z,73.24
2022-07-27T02:58:12.220Z,73.01
2022-07-27T02:58:32.284Z,73.08
2022-07-27T02:58:52.345Z,73.25
2022-07-27T02:59:12.816Z,73.32
2022-07-27T02:59:32.462Z,73.46
2022-07-27T02:59:52.524Z,73.8
2022-07-27T03:00:12.595Z,73.77
2022-07-27T03:00:32.643Z,73.33
2022-07-27T03:00:58.227Z,73.31
2022-07-27T03:01:12.815Z,73.21
2022-07-27T03:01:32.902Z,73.11
2022-07-27T03:01:52.970Z,73.15
2022-07-27T03:02:12.929Z,73.38
2022-07-27T03:02:33.006Z,73.55
2022-07-27T03:02:53.062Z,73.87
2022-07-27T03:03:13.098Z,73.45
2022-07-27T03:03:36.546Z,73.9
2022-07-27T03:03:53.222Z,73.9
2022-07-27T03:04:13.371Z,73.75
2022-07-27T03:04:33.427Z,73.77
2022-07-27T03:04:53.410Z,73.55
2022-07-27T03:05:13.473Z,73.74
2022-07-27T03:05:33.540Z,73.77
2022-07-27T03:05:53.668Z,73.79
2022-07-27T03:06:13.663Z,73.74
2022-07-27T03:06:33.753Z,73.65
2022-07-27T03:06:53.811Z,73.84
2022-07-27T03:07:13.868Z,73.85
2022-07-27T03:07:33.913Z,73.7
2022-07-27T03:07:53.976Z,73.69
2022-07-27T03:08:14.048Z,73.77
2022-07-27T03:08:34.102Z,73.77
2022-07-27T03:08:54.155Z,73.77
2022-07-27T03:09:14.742Z,73.74
2022-07-27T03:09:34.303Z,73.9
2022-07-27T03:09:54.355Z,73.83
2022-07-27T03:10:14.425Z,74.33
2022-07-27T03:10:34.478Z,74.41
2022-07-27T03:10:54.603Z,74.02
2022-07-27T03:11:14.588Z,74.12
2022-07-27T03:11:34.648Z,73.87
2022-07-27T03:11:54.714Z,73.94
2022-07-27T03:12:14.759Z,73.69
2022-07-27T03:12:34.828Z,73.63
2022-07-27T03:12:54.891Z,73.73
2022-07-27T03:13:14.949Z,73.63
2022-07-27T03:13:34.998Z,73.56
2022-07-27T03:13:55.071Z,73.58
2022-07-27T03:14:15.131Z,73.42
2022-07-27T03:14:35.188Z,73.42
2022-07-27T03:14:55.253Z,73.43
2022-07-27T03:15:15.305Z,73.17
2022-07-27T03:15:35.457Z,73.51
2022-07-27T03:15:55.752Z,73.39
2022-07-27T03:16:15.652Z,73.3
2022-07-27T03:16:35.547Z,72.97
2022-07-27T03:16:55.599Z,73.08
2022-07-27T03:17:15.649Z,73.21
2022-07-27T03:17:35.732Z,73.13
2022-07-27T03:17:55.782Z,72.86
2022-07-27T03:18:15.842Z,72.9
2022-07-27T03:18:35.903Z,72.95
2022-07-27T03:18:55.979Z,72.79
2022-07-27T03:19:16.046Z,73.09
2022-07-27T03:19:36.111Z,73.24
2022-07-27T03:19:56.161Z,73.23
2022-07-27T03:20:16.208Z,73.14
2022-07-27T03:20:36.260Z,73.19
2022-07-27T03:20:56.383Z,73.4
2022-07-27T03:21:16.389Z,73.54
2022-07-27T03:21:36.455Z,73.79
2022-07-27T03:21:56.512Z,73.27
2022-07-27T03:22:16.584Z,73.29
2022-07-27T03:22:36.632Z,73.39
2022-07-27T03:22:56.681Z,73.48
2022-07-27T03:23:16.759Z,73.6
2022-07-27T03:23:36.841Z,73.68
2022-07-27T03:23:56.905Z,73.46
2022-07-27T03:24:16.944Z,73.74
2022-07-27T03:24:37.011Z,73.65
2022-07-27T03:24:57.090Z,73.96
2022-07-27T03:25:17.190Z,73.87
2022-07-27T03:25:37.284Z,73.77
2022-07-27T03:25:57.443Z,74.47
2022-07-27T03:26:17.446Z,74.81
2022-07-27T03:26:37.529Z,75
2022-07-27T03:26:57.596Z,74.65
2022-07-27T03:27:17.660Z,75
2022-07-27T03:27:38.118Z,74.68
2022-07-27T03:28:03.491Z,74.49
2022-07-27T03:28:17.816Z,74.24
2022-07-27T03:28:37.868Z,74.06
2022-07-27T03:28:57.894Z,74.2
2022-07-27T03:29:17.995Z,74.22
2022-07-27T03:29:38.039Z,74.51
2022-07-27T03:29:58.114Z,74.51
2022-07-27T03:30:18.159Z,74.55
2022-07-27T03:30:38.294Z,75.2
2022-07-27T03:30:58.397Z,74.75
2022-07-27T03:31:18.402Z,74.95
2022-07-27T03:31:38.397Z,74.45
2022-07-27T03:31:58.442Z,74.69
2022-07-27T03:32:18.512Z,74.26
2022-07-27T03:32:38.590Z,74.04
2022-07-27T03:32:58.632Z,74.51
2022-07-27T03:33:18.703Z,74.65
2022-07-27T03:33:38.765Z,74.88
2022-07-27T03:33:58.822Z,75.07
2022-07-27T03:34:18.890Z,75.01
2022-07-27T03:34:38.950Z,75.14
2022-07-27T03:34:59.169Z,75.6
2022-07-27T03:35:19.706Z,75.88
2022-07-27T03:35:39.132Z,75.6
2022-07-27T03:35:59.275Z,75.42
2022-07-27T03:36:19.262Z,75.78
2022-07-27T03:36:39.326Z,75.53
2022-07-27T03:36:59.386Z,75.51
2022-07-27T03:37:19.432Z,75.5
2022-07-27T03:37:39.494Z,75.43
2022-07-27T03:37:59.563Z,75.62
2022-07-27T03:38:19.641Z,75.68
2022-07-27T03:38:39.673Z,75.62
2022-07-27T03:39:03.024Z,75.48
2022-07-27T03:39:19.794Z,75.88
2022-07-27T03:39:39.857Z,75.83
2022-07-27T03:39:59.961Z,75.94
2022-07-27T03:40:20.012Z,76.05
2022-07-27T03:40:40.070Z,75.97
2022-07-27T03:41:00.209Z,75.74
2022-07-27T03:41:20.171Z,75.35
2022-07-27T03:41:40.229Z,75.63
2022-07-27T03:42:00.293Z,75.88
2022-07-27T03:42:20.357Z,76.2
2022-07-27T03:42:40.417Z,75.95
2022-07-27T03:43:00.480Z,75.77
2022-07-27T03:43:20.531Z,75.98
2022-07-27T03:43:40.599Z,75.88
2022-07-27T03:44:00.641Z,75.81
2022-07-27T03:44:20.708Z,76.1
2022-07-27T03:44:40.757Z,75.95
2022-07-27T03:45:00.824Z,75.96
2022-07-27T03:45:20.879Z,76.25
2022-07-27T03:45:40.998Z,75.65
2022-07-27T03:46:01.215Z,75.53
2022-07-27T03:46:21.186Z,75.86
2022-07-27T03:46:41.135Z,75.95
2022-07-27T03:47:01.190Z,76.16
2022-07-27T03:47:21.232Z,75.93
2022-07-27T03:47:41.305Z,75.99
2022-07-27T03:48:01.363Z,76.27
2022-07-27T03:48:21.420Z,76.29
2022-07-27T03:48:41.549Z,76.38
2022-07-27T03:49:01.672Z,76.53
2022-07-27T03:49:21.717Z,77
2022-07-27T03:49:41.646Z,77.03
2022-07-27T03:50:01.715Z,76.79
2022-07-27T03:50:21.788Z,76.51
2022-07-27T03:50:41.836Z,76.3
2022-07-27T03:51:01.963Z,76.43
2022-07-27T03:51:21.961Z,76.68
2022-07-27T03:51:42.015Z,76.45
2022-07-27T03:52:02.064Z,76.62
2022-07-27T03:52:22.152Z,76.39
2022-07-27T03:52:45.614Z,76.31
2022-07-27T03:53:02.248Z,76.03
2022-07-27T03:53:22.308Z,76.19
2022-07-27T03:53:42.359Z,76.19
2022-07-27T03:54:02.427Z,75.91
2022-07-27T03:54:22.482Z,75.96
2022-07-27T03:54:42.557Z,75.94
2022-07-27T03:55:02.608Z,76.08
2022-07-27T03:55:22.686Z,75.97
2022-07-27T03:55:42.721Z,76.11
2022-07-27T03:56:02.873Z,75.97
2022-07-27T03:56:22.863Z,75.84
2022-07-27T03:56:42.917Z,75.93
2022-07-27T03:57:02.970Z,75.92
2022-07-27T03:57:23.045Z,75.91
2022-07-27T03:57:43.095Z,75.97
2022-07-27T03:58:03.161Z,76.02
2022-07-27T03:58:23.219Z,76.11
2022-07-27T03:58:43.258Z,76.23
2022-07-27T03:59:03.341Z,76.5
2022-07-27T03:59:23.424Z,76.4
2022-07-27T03:59:43.465Z,76.42
2022-07-27T04:00:03.527Z,76.41
2022-07-27T04:00:23.605Z,76.52
2022-07-27T04:00:43.653Z,76.47
2022-07-27T04:01:03.824Z,76.47
2022-07-27T04:01:23.792Z,76.4
2022-07-27T04:01:43.909Z,76.4
2022-07-27T04:02:03.906Z,76.45
2022-07-27T04:02:24.017Z,76.39
2022-07-27T04:02:44.152Z,76.42
2022-07-27T04:03:04.057Z,76.49
2022-07-27T04:03:24.100Z,76.57
2022-07-27T04:03:44.564Z,76.47
2022-07-27T04:04:04.228Z,76.47
2022-07-27T04:04:24.293Z,76.54
2022-07-27T04:04:44.349Z,76.41
2022-07-27T04:05:04.410Z,76.75
2022-07-27T04:05:24.468Z,76.75
2022-07-27T04:05:44.530Z,76.67
2022-07-27T04:06:04.660Z,76.61
2022-07-27T04:06:24.649Z,76.56
2022-07-27T04:06:44.706Z,76.78
2022-07-27T04:07:04.768Z,76.81
2022-07-27T04:07:24.824Z,76.74
2022-07-27T04:07:44.877Z,76.7
2022-07-27T04:08:04.910Z,76.59
2022-07-27T04:08:24.995Z,76.82
2022-07-27T04:08:45.080Z,76.74
2022-07-27T04:09:08.677Z,76.28
2022-07-27T04:09:25.209Z,76.3
2022-07-27T04:09:45.336Z,76.53
2022-07-27T04:10:05.331Z,76.74
2022-07-27T04:10:25.545Z,76.91
2022-07-27T04:10:45.455Z,76.81
2022-07-27T04:11:05.591Z,76.7
2022-07-27T04:11:25.589Z,76.76
2022-07-27T04:11:51.031Z,76.71
2022-07-27T04:12:05.681Z,76.55
2022-07-27T04:12:25.743Z,76.59
2022-07-27T04:12:46.751Z,76.54
2022-07-27T04:13:05.841Z,76.66
2022-07-27T04:13:25.898Z,76.58
2022-07-27T04:13:45.948Z,76.62
2022-07-27T04:14:06.004Z,76.91
2022-07-27T04:14:26.055Z,77.27
2022-07-27T04:14:46.088Z,77.21
2022-07-27T04:15:06.194Z,76.83
2022-07-27T04:15:26.283Z,76.81
2022-07-27T04:15:46.338Z,76.84
2022-07-27T04:16:06.478Z,76.79
2022-07-27T04:16:26.583Z,76.45
2022-07-27T04:16:46.595Z,76.62
2022-07-27T04:17:06.679Z,76.52
2022-07-27T04:17:53.460Z,76.63
2022-07-27T04:17:55.266Z,76.73
2022-07-27T04:18:06.778Z,76.77
2022-07-27T04:18:26.843Z,76.78
2022-07-27T04:18:46.904Z,76.98
2022-07-27T04:19:06.957Z,77.23
2022-07-27T04:19:27.026Z,77
2022-07-27T04:19:47.075Z,76.93